This is the latest recevied weather packets stored in our database for station/object DB0RSR-12. If no packets are shown the sender has not sent any weather packets the latest 10 day(s).
| Time | Temp. | Humidity | Pressure | Rain* | Wind** | Luminosity | Snow |
|---|---|---|---|---|---|---|---|
| 1777638353 | 32.78° C | 17% | 1013 hPa | - | - | - | - |
| 1777637453 | 32.78° C | 17% | 1013 hPa | - | - | - | - |
| 1777636553 | 32.22° C | 19% | 1013 hPa | - | - | - | - |
| 1777635653 | 32.22° C | 18% | 1013 hPa | - | - | - | - |
| 1777634753 | 31.67° C | 19% | 1013 hPa | - | - | - | - |
| 1777633853 | 31.67° C | 19% | 1014 hPa | - | - | - | - |
| 1777632952 | 31.11° C | 19% | 1014 hPa | - | - | - | - |
| 1777632052 | 31.11° C | 20% | 1014 hPa | - | - | - | - |
| 1777631152 | 28.89° C | 23% | 1014 hPa | - | - | - | - |
| 1777630252 | 28.89° C | 22% | 1014 hPa | - | - | - | - |
| 1777629352 | 28.33° C | 23% | 1014 hPa | - | - | - | - |
| 1777628452 | 27.22° C | 24% | 1014 hPa | - | - | - | - |
| 1777627552 | 26.67° C | 26% | 1014 hPa | - | - | - | - |
| 1777626652 | 25° C | 27% | 1015 hPa | - | - | - | - |
| 1777625752 | 23.89° C | 31% | 1015 hPa | - | - | - | - |
| 1777624852 | 23.33° C | 31% | 1015 hPa | - | - | - | - |
| 1777623952 | 22.22° C | 35% | 1015 hPa | - | - | - | - |
| 1777623052 | 21.11° C | 37% | 1015 hPa | - | - | - | - |
| 1777622152 | 19.44° C | 40% | 1015 hPa | - | - | - | - |
| 1777621252 | 17.78° C | 44% | 1015 hPa | - | - | - | - |
| 1777620351 | 16.67° C | 48% | 1015 hPa | - | - | - | - |
| 1777619451 | 14.44° C | 53% | 1015 hPa | - | - | - | - |
| 1777618551 | 13.33° C | 58% | 1015 hPa | - | - | - | - |
| 1777617651 | 12.22° C | 63% | 1015 hPa | - | - | - | - |
| 1777616751 | 10.56° C | 68% | 1015 hPa | - | - | - | - |
* Rain since midnight (hover to see other rain measurements)
** Current wind speed in m/s (hover to see current wind gust speed)